Time;durP1;ratioP1;P1;durP2;ratioP2;P2;SDS_P1;SDS_P2;PMS_P1;PMS_P2;Temp;Humidity;BMP_temperature;BMP_pressure;BME280_temperature;BME280_humidity;BME280_pressure;Samples;Min_cycle;Max_cycle;Signal;HPM_P1;HPM_P2
2023/03/13 00:02:18;;;;;;;6.97;1.40;;;6.20;99.90;;;;;;7568822;19;20348;-72
2023/03/13 00:04:50;;;;;;;3.03;1.38;;;6.10;99.90;;;;;;7571326;19;20015;-72
2023/03/13 00:07:23;;;;;;;2.80;1.73;;;6.10;99.90;;;;;;7582567;19;20025;-73
2023/03/13 00:09:55;;;;;;;3.38;1.38;;;6.00;99.90;;;;;;7583024;19;20014;-73
2023/03/13 00:12:27;;;;;;;1.73;1.30;;;6.00;99.90;;;;;;7579270;19;20054;-72
2023/03/13 00:14:59;;;;;;;3.63;1.50;;;6.00;99.90;;;;;;7590894;19;20102;-73
2023/03/13 00:17:32;;;;;;;3.88;1.60;;;5.90;99.90;;;;;;7590162;19;20017;-72
2023/03/13 00:20:06;;;;;;;3.45;1.90;;;5.90;99.90;;;;;;7583933;19;20026;-73
2023/03/13 00:22:38;;;;;;;4.15;1.83;;;5.90;99.90;;;;;;7584943;19;20018;-72
2023/03/13 00:25:10;;;;;;;2.00;1.50;;;5.90;99.90;;;;;;7583370;19;20134;-72
2023/03/13 00:27:42;;;;;;;2.75;1.60;;;5.90;99.90;;;;;;7586126;19;20101;-71
2023/03/13 00:30:15;;;;;;;3.10;1.50;;;5.90;99.90;;;;;;7593877;19;20026;-73
2023/03/13 00:32:47;;;;;;;2.60;1.30;;;5.90;99.90;;;;;;7583603;19;20291;-71
2023/03/13 00:35:19;;;;;;;2.40;1.35;;;5.90;99.90;;;;;;7596200;19;20908;-73
2023/03/13 00:37:51;;;;;;;3.50;1.45;;;5.90;99.90;;;;;;7571874;19;20531;-72
2023/03/13 00:40:24;;;;;;;2.15;1.40;;;5.80;99.90;;;;;;7577360;19;20014;-72
2023/03/13 00:42:56;;;;;;;1.98;1.20;;;5.80;99.90;;;;;;7580556;19;20121;-73
2023/03/13 00:45:28;;;;;;;2.22;1.13;;;5.80;99.90;;;;;;7593753;19;20571;-72
2023/03/13 00:48:00;;;;;;;1.90;1.30;;;5.80;99.90;;;;;;7588775;19;20537;-72
2023/03/13 00:50:32;;;;;;;2.42;1.05;;;5.70;99.90;;;;;;7595185;19;20014;-72
2023/03/13 00:53:04;;;;;;;2.53;1.20;;;5.70;99.90;;;;;;7584531;19;20050;-73
2023/03/13 00:55:37;;;;;;;1.75;1.23;;;5.70;99.90;;;;;;7593585;19;20373;-74
2023/03/13 00:58:10;;;;;;;2.67;1.35;;;5.60;99.90;;;;;;7580408;19;20868;-73
2023/03/13 01:00:42;;;;;;;2.28;1.50;;;5.60;99.90;;;;;;7582715;19;20641;-73
2023/03/13 01:03:15;;;;;;;3.72;1.33;;;5.60;99.90;;;;;;7582544;19;20988;-73
2023/03/13 01:05:58;;;;;;;6.75;1.98;;;5.50;99.90;;;;;;7595844;19;20037;-72
2023/03/13 01:08:30;;;;;;;2.30;1.23;;;5.50;99.90;;;;;;7587662;19;20575;-73
2023/03/13 01:11:06;;;;;;;2.80;1.10;;;5.50;99.90;;;;;;7589488;19;20287;-72
2023/03/13 01:13:38;;;;;;;1.85;1.20;;;5.40;99.90;;;;;;7583166;19;20018;-73
2023/03/13 01:16:17;;;;;;;3.00;1.45;;;5.40;99.90;;;;;;7581786;19;20022;-72
2023/03/13 01:18:54;;;;;;;2.00;1.15;;;5.30;99.90;;;;;;7576140;19;20022;-73
2023/03/13 01:21:27;;;;;;;2.95;1.50;;;5.20;99.90;;;;;;7577114;19;20111;-74
2023/03/13 01:24:00;;;;;;;2.50;1.70;;;5.10;99.90;;;;;;7588647;19;20383;-72
2023/03/13 01:26:33;;;;;;;2.28;1.35;;;5.20;99.90;;;;;;7585353;19;20021;-72
2023/03/13 01:29:05;;;;;;;3.33;1.27;;;5.10;99.90;;;;;;7570608;19;20060;-72
2023/03/13 01:31:37;;;;;;;2.00;1.30;;;5.10;99.90;;;;;;7596802;19;20023;-72
2023/03/13 01:34:11;;;;;;;2.47;1.30;;;5.10;99.90;;;;;;7584981;19;20014;-72
2023/03/13 01:36:45;;;;;;;1.80;1.25;;;5.00;99.90;;;;;;7598145;19;20015;-74
2023/03/13 01:39:17;;;;;;;2.20;1.50;;;5.00;99.90;;;;;;7584716;19;20019;-73
2023/03/13 01:41:50;;;;;;;2.53;1.30;;;5.10;99.90;;;;;;7587084;19;20014;-72
2023/03/13 01:44:24;;;;;;;3.15;1.45;;;5.00;99.90;;;;;;7589857;19;20023;-74
2023/03/13 01:46:57;;;;;;;2.75;1.30;;;5.00;99.90;;;;;;7583908;19;20539;-73
2023/03/13 01:49:33;;;;;;;4.03;1.27;;;4.90;99.90;;;;;;7579437;19;20857;-73
2023/03/13 01:52:27;;;;;;;3.03;1.13;;;4.90;99.90;;;;;;7575387;19;20026;-72
2023/03/13 01:55:22;;;;;;;4.97;1.30;;;4.90;99.90;;;;;;7590161;19;20021;-73
2023/03/13 01:57:56;;;;;;;4.43;1.20;;;4.90;99.90;;;;;;7595464;19;20074;-73
2023/03/13 02:00:34;;;;;;;2.00;1.48;;;4.90;99.90;;;;;;7565131;19;20014;-71
2023/03/13 02:03:11;;;;;;;2.97;1.63;;;4.90;99.90;;;;;;7575981;19;20011;-74
2023/03/13 02:05:47;;;;;;;2.08;1.40;;;5.00;99.90;;;;;;7581816;19;20026;-74
2023/03/13 02:08:32;;;;;;;2.17;1.27;;;4.90;99.90;;;;;;7582039;19;20014;-72
2023/03/13 02:11:42;;;;;;;1.88;1.10;;;4.90;99.90;;;;;;7573843;19;20018;-72
2023/03/13 02:14:17;;;;;;;2.55;1.20;;;4.90;99.90;;;;;;7579455;19;20015;-74
2023/03/13 02:16:54;;;;;;;3.97;1.20;;;4.90;99.90;;;;;;7582406;19;20023;-73
2023/03/13 02:19:29;;;;;;;;;;;4.90;99.90;;;;;;7585472;19;20118;-73
2023/03/13 02:22:19;;;;;;;2.97;1.27;;;4.80;99.90;;;;;;7578079;19;20018;-73
2023/03/13 02:25:17;;;;;;;3.08;1.25;;;4.80;99.90;;;;;;7581964;19;20012;-74
2023/03/13 02:27:59;;;;;;;2.10;1.10;;;4.80;99.90;;;;;;7585937;19;20025;-72
2023/03/13 02:30:34;;;;;;;2.65;1.45;;;4.70;99.90;;;;;;7588444;19;20016;-73
2023/03/13 02:33:07;;;;;;;;;;;4.70;99.90;;;;;;7552555;19;20018;-70
2023/03/13 02:35:41;;;;;;;3.80;1.67;;;4.60;99.90;;;;;;7587448;19;19918;-72
2023/03/13 02:38:22;;;;;;;1.42;0.93;;;4.70;99.90;;;;;;7578355;19;21739;-73
2023/03/13 02:40:56;;;;;;;1.77;1.00;;;4.60;99.90;;;;;;7584320;19;20327;-73
2023/03/13 02:43:31;;;;;;;1.98;1.00;;;4.60;99.90;;;;;;7575144;19;21148;-73
2023/03/13 02:46:13;;;;;;;1.23;1.13;;;4.60;99.90;;;;;;7575257;19;20628;-72
2023/03/13 02:48:52;;;;;;;1.40;0.93;;;4.60;99.90;;;;;;7571926;19;20625;-71
2023/03/13 02:51:40;;;;;;;3.03;1.20;;;4.60;99.90;;;;;;7580980;19;20632;-74
2023/03/13 02:54:22;;;;;;;4.10;1.20;;;4.60;99.90;;;;;;7590847;19;20021;-72
2023/03/13 02:56:57;;;;;;;2.15;1.50;;;4.60;99.90;;;;;;7571971;19;20138;-70
2023/03/13 02:59:30;;;;;;;3.03;1.17;;;4.50;99.90;;;;;;7579860;19;20117;-74
2023/03/13 03:02:03;;;;;;;1.92;1.00;;;4.50;99.90;;;;;;7561124;19;20015;-73
2023/03/13 03:04:36;;;;;;;2.13;1.33;;;4.50;99.90;;;;;;7576948;19;20029;-73
2023/03/13 03:07:08;;;;;;;1.45;1.10;;;4.50;99.90;;;;;;7578884;19;20937;-73
2023/03/13 03:09:40;;;;;;;1.27;1.00;;;4.50;99.90;;;;;;7577803;19;20021;-73
2023/03/13 03:12:17;;;;;;;1.98;1.30;;;4.50;99.90;;;;;;7574194;19;20023;-72
2023/03/13 03:14:49;;;;;;;1.48;1.20;;;4.50;99.90;;;;;;7576909;19;21003;-73
2023/03/13 03:17:22;;;;;;;1.83;1.30;;;4.50;99.90;;;;;;7577143;19;20025;-73
2023/03/13 03:19:54;;;;;;;3.70;1.05;;;4.50;99.90;;;;;;7580903;19;20015;-73
2023/03/13 03:22:26;;;;;;;2.30;1.10;;;4.50;99.90;;;;;;7585029;19;20560;-73
2023/03/13 03:24:59;;;;;;;3.10;1.05;;;4.60;99.90;;;;;;7587738;19;20021;-74
2023/03/13 03:27:31;;;;;;;2.08;0.90;;;4.60;99.90;;;;;;7589865;19;20044;-72
2023/03/13 03:30:04;;;;;;;1.08;0.98;;;4.70;99.90;;;;;;7583282;19;20082;-72
2023/03/13 03:32:39;;;;;;;1.00;0.75;;;4.70;99.90;;;;;;7576200;19;20018;-73
2023/03/13 03:35:11;;;;;;;1.73;1.10;;;4.70;99.90;;;;;;7588913;19;20137;-73
2023/03/13 03:37:43;;;;;;;1.80;0.95;;;4.60;99.90;;;;;;7605396;19;20089;-73
2023/03/13 03:40:16;;;;;;;1.90;1.30;;;4.70;99.90;;;;;;7600270;19;20198;-72
2023/03/13 03:42:51;;;;;;;3.22;0.95;;;4.70;99.90;;;;;;7589285;19;20018;-71
2023/03/13 03:45:24;;;;;;;1.00;0.90;;;4.70;99.90;;;;;;7585411;19;20055;-74
2023/03/13 03:47:58;;;;;;;1.60;0.97;;;4.80;99.90;;;;;;7585728;19;20006;-74
2023/03/13 03:50:31;;;;;;;1.25;0.88;;;4.70;99.90;;;;;;7594927;19;20018;-74
2023/03/13 03:53:06;;;;;;;1.00;0.90;;;4.80;99.90;;;;;;7577230;19;20040;-72
2023/03/13 03:55:39;;;;;;;1.70;1.10;;;4.70;99.90;;;;;;7591525;19;20463;-74
2023/03/13 03:58:11;;;;;;;2.28;0.80;;;4.70;99.90;;;;;;7569837;19;20030;-73
2023/03/13 04:00:59;;;;;;;1.40;1.02;;;4.80;99.90;;;;;;7584610;19;20263;-73
2023/03/13 04:03:32;;;;;;;1.10;1.00;;;4.80;99.90;;;;;;7577016;19;20018;-73
2023/03/13 04:06:05;;;;;;;1.23;0.80;;;4.80;99.90;;;;;;7582595;19;20164;-74
2023/03/13 04:08:37;;;;;;;1.23;1.10;;;4.80;99.90;;;;;;7565721;19;20550;-73
2023/03/13 04:11:10;;;;;;;2.10;1.00;;;4.70;99.90;;;;;;7585125;19;20022;-74
2023/03/13 04:13:45;;;;;;;1.92;1.30;;;4.80;99.90;;;;;;7587779;19;20017;-72
2023/03/13 04:16:17;;;;;;;0.80;0.80;;;4.80;99.90;;;;;;7578371;19;20017;-73
2023/03/13 04:18:51;;;;;;;1.35;0.95;;;4.80;99.90;;;;;;7582471;19;20067;-73
2023/03/13 04:21:24;;;;;;;1.27;0.85;;;4.90;99.90;;;;;;7584440;19;20011;-72
2023/03/13 04:24:06;;;;;;;1.35;1.00;;;5.00;99.90;;;;;;7585955;19;20023;-73
2023/03/13 04:26:39;;;;;;;1.40;1.02;;;4.90;99.90;;;;;;7572985;19;20485;-73
2023/03/13 04:29:11;;;;;;;1.88;1.10;;;5.00;99.90;;;;;;7577459;19;20048;-72
2023/03/13 04:32:04;;;;;;;0.95;0.80;;;5.00;99.90;;;;;;7563844;19;20021;-72
2023/03/13 04:34:59;;;;;;;1.25;0.90;;;5.10;99.90;;;;;;7578473;19;20018;-73
2023/03/13 04:37:51;;;;;;;1.23;0.90;;;5.10;99.90;;;;;;7577046;19;20348;-73
2023/03/13 04:40:52;;;;;;;2.10;1.17;;;5.10;99.90;;;;;;7583189;19;20086;-74
2023/03/13 04:43:42;;;;;;;1.15;0.90;;;5.10;99.90;;;;;;7579766;19;20817;-73
2023/03/13 04:46:33;;;;;;;1.00;0.90;;;5.10;99.90;;;;;;7548884;19;20183;-72
2023/03/13 04:49:25;;;;;;;1.25;0.95;;;5.10;99.90;;;;;;7564711;19;20429;-73
2023/03/13 04:52:16;;;;;;;1.10;1.00;;;5.10;99.90;;;;;;7531208;19;20019;-73
2023/03/13 04:55:08;;;;;;;1.50;1.10;;;5.10;99.90;;;;;;7544178;19;20022;-72
2023/03/13 04:58:09;;;;;;;4.18;1.23;;;5.20;99.90;;;;;;7576079;19;20320;-74
2023/03/13 05:00:53;;;;;;;;;;;5.10;99.90;;;;;;7563724;19;20010;-71
2023/03/13 05:03:33;;;;;;;2.38;1.10;;;5.10;99.90;;;;;;7567250;19;19949;-72
2023/03/13 05:06:14;;;;;;;2.03;1.00;;;5.10;99.90;;;;;;7582961;19;20046;-74
2023/03/13 05:09:08;;;;;;;1.13;0.98;;;5.20;99.90;;;;;;7571253;19;20046;-72
2023/03/13 05:12:03;;;;;;;4.10;1.10;;;5.20;99.90;;;;;;7569593;19;20022;-74
2023/03/13 05:14:56;;;;;;;1.17;1.00;;;5.20;99.90;;;;;;7579651;19;20013;-71
2023/03/13 05:17:46;;;;;;;1.75;1.25;;;5.20;99.90;;;;;;7578970;19;20981;-74
2023/03/13 05:20:31;;;;;;;6.85;1.30;;;5.30;99.90;;;;;;7573452;19;20819;-73
2023/03/13 05:23:23;;;;;;;2.28;1.30;;;5.40;99.90;;;;;;7577945;19;20010;-73
2023/03/13 05:26:34;;;;;;;2.90;0.82;;;5.40;99.90;;;;;;7590468;19;20010;-71
2023/03/13 05:29:25;;;;;;;2.47;1.20;;;5.50;99.90;;;;;;7577744;19;20220;-72
2023/03/13 05:32:16;;;;;;;1.85;1.10;;;5.60;99.90;;;;;;7566092;19;20011;-72
2023/03/13 05:35:18;;;;;;;3.97;1.40;;;5.60;99.90;;;;;;7568581;19;20022;-74
2023/03/13 05:37:53;;;;;;;1.00;0.75;;;5.70;99.90;;;;;;7591049;19;20018;-73
2023/03/13 05:40:42;;;;;;;1.25;0.95;;;5.80;99.90;;;;;;7586784;19;20026;-72
2023/03/13 05:43:44;;;;;;;1.80;1.50;;;5.90;99.90;;;;;;7579168;19;20018;-73
2023/03/13 05:46:33;;;;;;;2.25;1.05;;;5.80;99.90;;;;;;7576546;19;20018;-72
2023/03/13 05:49:23;;;;;;;1.38;0.80;;;5.90;99.90;;;;;;7565475;19;20034;-72
2023/03/13 05:52:13;;;;;;;1.80;1.05;;;6.00;99.90;;;;;;7567819;19;20011;-73
2023/03/13 05:54:45;;;;;;;1.17;0.90;;;6.00;99.90;;;;;;7571599;19;20014;-73
2023/03/13 05:57:47;;;;;;;2.20;1.30;;;6.00;99.90;;;;;;7562460;19;20562;-73
2023/03/13 06:00:34;;;;;;;2.90;1.20;;;6.20;99.90;;;;;;7565934;19;20014;-73
2023/03/13 06:03:26;;;;;;;2.08;1.00;;;6.20;99.90;;;;;;7538639;19;20039;-73
2023/03/13 06:06:00;;;;;;;3.35;1.60;;;6.30;99.90;;;;;;7540506;19;20017;-72
2023/03/13 06:08:44;;;;;;;3.72;1.42;;;6.30;99.90;;;;;;7540729;19;20563;-74
2023/03/13 06:11:16;;;;;;;2.88;1.35;;;6.40;99.90;;;;;;7533809;19;20053;-72
2023/03/13 06:13:51;;;;;;;2.40;1.45;;;6.40;99.90;;;;;;7528411;19;20025;-73
2023/03/13 06:16:33;;;;;;;4.07;2.03;;;6.50;99.90;;;;;;7554513;19;20010;-73
2023/03/13 06:19:23;;;;;;;2.45;1.40;;;6.60;99.90;;;;;;7523795;19;20018;-73
2023/03/13 06:21:56;;;;;;;5.65;1.48;;;6.70;99.90;;;;;;7560510;19;20122;-71
2023/03/13 06:24:28;;;;;;;1.98;1.23;;;6.70;99.90;;;;;;7579747;19;20015;-72
2023/03/13 06:27:00;;;;;;;1.35;1.10;;;6.80;99.90;;;;;;7589873;19;20345;-73
2023/03/13 06:29:32;;;;;;;2.40;1.20;;;6.90;99.90;;;;;;7586571;19;20015;-72
2023/03/13 06:32:05;;;;;;;3.40;1.20;;;6.90;99.90;;;;;;7578351;19;20020;-77
2023/03/13 06:34:37;;;;;;;2.53;1.00;;;6.90;99.90;;;;;;7597372;19;20029;-76
2023/03/13 06:37:09;;;;;;;1.67;0.93;;;7.00;99.90;;;;;;7587628;19;20479;-77
2023/03/13 06:39:41;;;;;;;2.92;1.40;;;7.10;99.90;;;;;;7604408;19;20010;-76
2023/03/13 06:42:13;;;;;;;4.30;1.40;;;7.10;99.90;;;;;;7600245;19;20014;-79
2023/03/13 06:44:46;;;;;;;2.83;1.27;;;7.20;99.90;;;;;;7604429;19;20021;-78
2023/03/13 06:47:18;;;;;;;5.55;1.75;;;7.20;99.90;;;;;;7590909;19;20029;-76
2023/03/13 06:49:50;;;;;;;2.35;1.50;;;7.30;99.90;;;;;;7601247;19;20022;-78
2023/03/13 06:52:22;;;;;;;5.60;1.65;;;7.30;99.90;;;;;;7602127;19;20472;-78
2023/03/13 06:55:12;;;;;;;2.78;1.33;;;7.30;99.90;;;;;;7583950;19;20018;-78
2023/03/13 06:57:49;;;;;;;5.05;1.40;;;7.40;99.90;;;;;;7605237;19;20091;-77
2023/03/13 07:00:22;;;;;;;3.90;1.52;;;7.40;99.90;;;;;;7588621;19;20035;-77
2023/03/13 07:02:54;;;;;;;3.35;1.75;;;7.50;99.90;;;;;;7600046;19;20018;-77
2023/03/13 07:05:26;;;;;;;8.27;2.30;;;7.60;99.90;;;;;;7600288;19;20014;-75
2023/03/13 07:07:59;;;;;;;5.20;2.40;;;7.60;99.90;;;;;;7593830;19;20062;-75
2023/03/13 07:10:32;;;;;;;12.25;3.28;;;7.50;99.90;;;;;;7569091;19;20015;-78
2023/03/13 07:13:04;;;;;;;4.97;2.53;;;7.60;99.90;;;;;;7595298;19;20015;-76
2023/03/13 07:15:36;;;;;;;10.55;2.85;;;7.60;99.90;;;;;;7596221;19;20082;-78
2023/03/13 07:18:09;;;;;;;12.85;4.13;;;7.70;99.90;;;;;;7573192;19;20018;-76
2023/03/13 07:20:41;;;;;;;8.15;2.97;;;7.70;99.90;;;;;;7570772;19;21665;-77
2023/03/13 07:23:13;;;;;;;8.00;2.47;;;7.70;99.90;;;;;;7582565;19;20036;-75
2023/03/13 07:25:53;;;;;;;3.35;1.95;;;7.80;99.40;;;;;;7579440;19;20177;-77
2023/03/13 07:28:27;;;;;;;4.43;2.28;;;7.90;98.80;;;;;;7581501;19;20011;-76
2023/03/13 07:31:06;;;;;;;6.68;2.53;;;7.90;96.80;;;;;;7571246;19;20030;-78
2023/03/13 07:33:40;;;;;;;5.18;2.03;;;8.00;96.40;;;;;;7563557;19;20007;-75
2023/03/13 07:36:15;;;;;;;3.70;2.50;;;8.10;95.20;;;;;;7580735;19;20090;-76
2023/03/13 07:38:48;;;;;;;6.63;2.33;;;8.20;94.10;;;;;;7591926;19;20021;-78
2023/03/13 07:41:21;;;;;;;5.95;2.00;;;8.30;93.70;;;;;;7588468;19;20880;-76
2023/03/13 07:43:53;;;;;;;2.95;1.50;;;8.30;93.60;;;;;;7589279;19;20025;-76
2023/03/13 07:46:26;;;;;;;5.45;1.73;;;8.40;92.70;;;;;;7582433;19;20019;-76
2023/03/13 07:48:58;;;;;;;3.27;1.37;;;8.40;92.50;;;;;;7587997;19;20597;-76
2023/03/13 07:51:31;;;;;;;2.42;1.40;;;8.50;92.00;;;;;;7602159;19;20725;-77
2023/03/13 07:54:14;;;;;;;1.83;1.08;;;8.60;91.90;;;;;;7597722;19;22430;-78
2023/03/13 07:56:47;;;;;;;4.00;1.40;;;8.70;91.80;;;;;;7597532;19;20011;-78
2023/03/13 07:59:19;;;;;;;2.77;1.17;;;8.60;91.60;;;;;;7586694;19;20020;-78
2023/03/13 08:01:51;;;;;;;2.03;1.17;;;8.70;91.60;;;;;;7574376;19;20029;-75
2023/03/13 08:04:24;;;;;;;3.40;1.65;;;8.70;91.50;;;;;;7599230;19;20018;-77
2023/03/13 08:06:56;;;;;;;4.82;1.40;;;8.70;91.80;;;;;;7596907;19;20014;-76
2023/03/13 08:09:32;;;;;;;3.53;1.40;;;8.80;91.70;;;;;;7594136;19;20014;-76
2023/03/13 08:12:05;;;;;;;3.22;1.63;;;8.90;90.70;;;;;;7600199;19;20053;-78
2023/03/13 08:14:37;;;;;;;6.65;2.22;;;8.90;91.10;;;;;;7603259;19;20014;-78
2023/03/13 08:17:09;;;;;;;3.60;1.92;;;9.00;90.50;;;;;;7601107;19;20043;-78
2023/03/13 08:19:41;;;;;;;7.47;2.20;;;9.10;90.60;;;;;;7609204;19;20018;-78
2023/03/13 08:22:14;;;;;;;2.78;1.50;;;9.20;90.50;;;;;;7596992;19;20052;-77
2023/03/13 08:24:47;;;;;;;3.55;1.67;;;9.40;88.70;;;;;;7591717;19;20022;-78
2023/03/13 08:27:19;;;;;;;5.85;2.10;;;9.50;88.80;;;;;;7596258;19;20930;-76
2023/03/13 08:29:51;;;;;;;6.75;1.75;;;9.60;87.40;;;;;;7603032;19;20086;-76
2023/03/13 08:32:24;;;;;;;5.05;1.25;;;9.70;86.70;;;;;;7599696;19;20018;-77
2023/03/13 08:34:56;;;;;;;2.95;1.40;;;9.90;86.20;;;;;;7608185;19;20018;-76
2023/03/13 08:37:28;;;;;;;2.13;1.17;;;9.90;83.70;;;;;;7602422;19;20029;-76
2023/03/13 08:40:00;;;;;;;2.72;1.02;;;10.00;83.90;;;;;;7601236;19;20010;-76
2023/03/13 08:42:32;;;;;;;3.53;1.02;;;10.10;86.10;;;;;;7598117;19;20026;-76
2023/03/13 08:45:05;;;;;;;5.80;1.15;;;10.00;87.70;;;;;;7597279;19;20026;-77
2023/03/13 08:47:37;;;;;;;3.70;1.70;;;10.00;90.20;;;;;;7596180;19;20018;-76
2023/03/13 08:50:10;;;;;;;7.85;1.50;;;9.90;90.90;;;;;;7615837;19;20372;-76
2023/03/13 08:52:43;;;;;;;1.65;1.00;;;9.90;91.50;;;;;;7600326;19;20093;-75
2023/03/13 08:55:15;;;;;;;;;;;9.80;92.50;;;;;;7607205;19;20837;-75
2023/03/13 08:57:47;;;;;;;4.65;1.65;;;9.90;93.20;;;;;;7606950;19;20582;-76
2023/03/13 09:00:20;;;;;;;1.60;1.13;;;9.90;93.70;;;;;;7604360;19;20030;-77
2023/03/13 09:02:52;;;;;;;4.68;1.17;;;10.00;93.60;;;;;;7607383;19;20019;-75
2023/03/13 09:05:25;;;;;;;3.13;1.20;;;10.00;94.20;;;;;;7615240;19;20014;-74
2023/03/13 09:07:57;;;;;;;3.17;1.50;;;10.00;94.50;;;;;;7615385;19;20014;-75
2023/03/13 09:10:32;;;;;;;3.65;1.00;;;10.10;94.40;;;;;;7605310;19;20022;-77
2023/03/13 09:13:04;;;;;;;0.93;0.88;;;10.30;93.70;;;;;;7606464;19;20040;-75
2023/03/13 09:15:36;;;;;;;5.72;1.30;;;10.40;92.40;;;;;;7616078;19;20045;-76
2023/03/13 09:18:09;;;;;;;2.85;1.00;;;10.60;91.70;;;;;;7617218;19;20023;-77
2023/03/13 09:20:42;;;;;;;2.45;1.05;;;10.80;91.20;;;;;;7615322;19;20386;-78
2023/03/13 09:23:15;;;;;;;2.17;1.08;;;11.10;89.90;;;;;;7606432;19;20117;-78
2023/03/13 09:25:48;;;;;;;2.20;1.20;;;11.20;88.50;;;;;;7614295;19;20101;-77
2023/03/13 09:28:20;;;;;;;;;;;11.40;83.50;;;;;;7610888;19;20546;-75
2023/03/13 09:30:54;;;;;;;2.35;1.20;;;11.50;81.50;;;;;;7613997;19;19923;-75
2023/03/13 09:33:26;;;;;;;1.77;0.98;;;11.60;81.50;;;;;;7615424;19;20047;-76
2023/03/13 09:35:58;;;;;;;2.05;0.93;;;11.70;80.90;;;;;;7621238;19;20024;-75
2023/03/13 09:38:31;;;;;;;1.48;0.80;;;11.70;79.00;;;;;;7629210;19;20052;-75
2023/03/13 09:41:21;;;;;;;1.17;0.85;;;11.80;77.00;;;;;;7628918;19;20521;-75
2023/03/13 09:44:15;;;;;;;1.02;0.70;;;12.00;77.80;;;;;;7624089;19;20027;-75
2023/03/13 09:46:47;;;;;;;1.30;0.63;;;12.30;76.20;;;;;;7624058;19;20047;-75
2023/03/13 09:49:38;;;;;;;1.27;0.90;;;12.50;73.20;;;;;;7621804;19;20018;-76
2023/03/13 09:52:21;;;;;;;0.55;0.52;;;12.60;74.90;;;;;;7619919;19;21043;-76
2023/03/13 09:55:21;;;;;;;1.30;0.85;;;12.70;75.10;;;;;;7622737;19;20014;-77
2023/03/13 09:57:55;;;;;;;0.68;0.65;;;12.80;73.00;;;;;;7619059;19;20014;-79
2023/03/13 10:00:37;;;;;;;2.45;0.60;;;13.00;72.80;;;;;;7609381;19;20015;-76
2023/03/13 10:03:30;;;;;;;0.82;0.60;;;13.20;72.10;;;;;;7609626;19;20023;-76
2023/03/13 10:06:18;;;;;;;0.80;0.70;;;13.40;67.50;;;;;;7618535;19;20026;-76
2023/03/13 10:08:51;;;;;;;0.60;0.60;;;13.60;69.70;;;;;;6591962;19;10000841;-78
2023/03/13 10:11:36;;;;;;;0.50;0.47;;;13.80;68.50;;;;;;7584794;19;20101;-77
2023/03/13 10:14:17;;;;;;;0.73;0.60;;;14.10;64.80;;;;;;7605129;19;20018;-77
2023/03/13 10:17:17;;;;;;;2.70;0.70;;;14.20;63.20;;;;;;7602780;19;20010;-76
2023/03/13 10:19:57;;;;;;;1.83;0.60;;;14.20;62.90;;;;;;7599688;19;20890;-75
2023/03/13 10:22:31;;;;;;;3.20;0.50;;;14.30;64.40;;;;;;7604206;19;20057;-75
2023/03/13 10:25:19;;;;;;;1.23;0.82;;;14.60;63.30;;;;;;7603564;19;20007;-78
2023/03/13 10:27:53;;;;;;;1.80;0.70;;;14.70;61.20;;;;;;7582981;19;20018;-77
2023/03/13 10:30:29;;;;;;;1.48;0.60;;;14.80;62.80;;;;;;7603502;19;20014;-77
2023/03/13 10:33:12;;;;;;;1.08;0.60;;;14.90;60.00;;;;;;7605625;19;20538;-75
2023/03/13 10:35:44;;;;;;;1.23;0.70;;;14.90;60.20;;;;;;7598730;19;20087;-75
2023/03/13 10:38:19;;;;;;;1.33;0.65;;;14.90;61.10;;;;;;7601510;19;20018;-78
2023/03/13 10:41:09;;;;;;;1.67;0.80;;;15.00;61.20;;;;;;7606021;19;20014;-76
2023/03/13 10:43:52;;;;;;;1.95;0.70;;;15.30;61.30;;;;;;7602187;19;20011;-74
2023/03/13 10:46:27;;;;;;;0.80;0.40;;;15.40;59.80;;;;;;7590604;19;20015;-74
2023/03/13 10:49:02;;;;;;;1.45;0.73;;;15.50;59.20;;;;;;7599442;19;20026;-78
2023/03/13 10:51:38;;;;;;;1.13;0.47;;;15.50;59.80;;;;;;7596437;19;20062;-77
2023/03/13 10:54:30;;;;;;;2.13;0.50;;;15.60;59.80;;;;;;7595199;19;20014;-77
2023/03/13 10:57:24;;;;;;;0.70;0.57;;;15.60;59.60;;;;;;7604384;19;20018;-76
2023/03/13 10:59:58;;;;;;;4.25;0.70;;;15.70;60.10;;;;;;7607492;19;20376;-76
2023/03/13 11:02:38;;;;;;;1.73;0.70;;;15.80;60.20;;;;;;7583975;19;20018;-78
2023/03/13 11:05:23;;;;;;;1.30;0.80;;;15.90;60.80;;;;;;7599540;19;20686;-75
2023/03/13 11:07:55;;;;;;;2.45;0.95;;;16.10;59.50;;;;;;7595921;19;20015;-75
2023/03/13 11:10:29;;;;;;;1.05;0.75;;;16.10;58.70;;;;;;7600300;19;20497;-77
2023/03/13 11:13:02;;;;;;;3.47;0.85;;;16.30;59.50;;;;;;7597478;19;20017;-76
2023/03/13 11:15:43;;;;;;;1.65;0.73;;;16.40;59.70;;;;;;7599970;19;20062;-78
2023/03/13 11:18:31;;;;;;;2.88;0.70;;;16.50;57.60;;;;;;7606540;19;20633;-77
2023/03/13 11:21:05;;;;;;;2.97;0.70;;;16.60;58.10;;;;;;7589337;19;20021;-75
2023/03/13 11:24:03;;;;;;;2.15;0.75;;;16.70;58.10;;;;;;7576035;19;20018;-77
2023/03/13 11:26:41;;;;;;;0.93;0.70;;;16.80;57.10;;;;;;7590361;19;20098;-75
2023/03/13 11:29:37;;;;;;;2.72;0.85;;;16.90;57.40;;;;;;7598189;19;20475;-77
2023/03/13 11:32:29;;;;;;;2.30;0.80;;;16.90;56.40;;;;;;7601809;19;20018;-77
2023/03/13 11:35:14;;;;;;;1.35;0.70;;;17.10;57.00;;;;;;7598155;19;20549;-77
2023/03/13 11:37:50;;;;;;;2.25;0.93;;;17.30;57.30;;;;;;7595429;19;20035;-75
2023/03/13 11:40:35;;;;;;;1.30;0.50;;;17.80;56.60;;;;;;7599079;19;21081;-75
2023/03/13 11:43:18;;;;;;;0.25;0.25;;;18.10;54.50;;;;;;7595449;19;20029;-77
2023/03/13 11:46:05;;;;;;;0.70;0.60;;;18.60;53.30;;;;;;7603636;19;20018;-78
2023/03/13 11:49:09;;;;;;;1.52;0.88;;;19.10;53.20;;;;;;7579233;19;20093;-77
2023/03/13 11:52:08;;;;;;;1.33;0.50;;;19.80;53.10;;;;;;7594185;19;20094;-76
2023/03/13 11:55:01;;;;;;;1.08;0.50;;;19.90;50.90;;;;;;7589598;19;20068;-76
2023/03/13 11:58:19;;;;;;;2.90;0.70;;;19.90;50.00;;;;;;7585336;19;20062;-77
2023/03/13 12:01:11;;;;;;;1.80;0.70;;;20.20;51.70;;;;;;7588052;19;20014;-75
2023/03/13 12:04:13;;;;;;;2.15;0.73;;;20.40;49.70;;;;;;7585692;19;20049;-78
2023/03/13 12:07:11;;;;;;;0.77;0.68;;;20.90;50.70;;;;;;7564869;19;20127;-78
2023/03/13 12:09:50;;;;;;;0.73;0.57;;;21.40;49.40;;;;;;7572816;19;20017;-79
2023/03/13 12:12:44;;;;;;;2.95;0.70;;;21.70;49.30;;;;;;7580849;19;20059;-79
2023/03/13 12:15:26;;;;;;;2.03;0.57;;;21.80;48.20;;;;;;7589025;19;20018;-75
2023/03/13 12:18:21;;;;;;;0.90;0.53;;;21.50;48.20;;;;;;7596935;19;20462;-77
2023/03/13 12:21:11;;;;;;;1.90;0.90;;;21.30;50.50;;;;;;7596673;19;20843;-75
2023/03/13 12:23:55;;;;;;;1.48;0.40;;;21.80;51.30;;;;;;7601005;19;20049;-74
2023/03/13 12:26:37;;;;;;;1.52;0.60;;;21.80;50.40;;;;;;7598358;19;20750;-76
2023/03/13 12:29:55;;;;;;;1.20;0.60;;;22.20;52.00;;;;;;7577838;19;20022;-78
2023/03/13 12:32:39;;;;;;;1.55;0.60;;;22.80;51.60;;;;;;7574464;19;20022;-77
2023/03/13 12:35:11;;;;;;;3.08;0.52;;;22.70;51.80;;;;;;7575403;19;20019;-75
2023/03/13 12:37:56;;;;;;;1.88;0.60;;;22.10;52.70;;;;;;7573881;19;21108;-75
2023/03/13 12:40:47;;;;;;;5.97;1.08;;;21.70;54.00;;;;;;7572041;19;20017;-74
2023/03/13 12:43:22;;;;;;;6.30;0.70;;;21.30;53.80;;;;;;7570530;19;20018;-74
2023/03/13 12:45:57;;;;;;;1.45;0.60;;;21.30;54.50;;;;;;7584308;19;20523;-75
2023/03/13 12:48:36;;;;;;;3.33;0.50;;;21.60;53.30;;;;;;7551451;19;21381;-74
2023/03/13 12:51:27;;;;;;;2.92;0.88;;;22.00;52.70;;;;;;7567896;19;20018;-78
2023/03/13 12:54:28;;;;;;;3.47;0.80;;;22.40;50.40;;;;;;7565833;19;20021;-75
2023/03/13 12:57:12;;;;;;;2.92;0.70;;;22.60;51.00;;;;;;7566717;19;20019;-76
2023/03/13 12:59:58;;;;;;;1.58;0.70;;;23.60;50.20;;;;;;7566120;19;20090;-76
2023/03/13 13:02:31;;;;;;;1.40;0.90;;;23.60;48.80;;;;;;7545452;19;20021;-71
2023/03/13 13:05:04;;;;;;;2.58;1.10;;;23.70;47.90;;;;;;7564167;19;20024;-73
2023/03/13 13:07:38;;;;;;;2.42;0.98;;;23.90;49.10;;;;;;7557988;19;20136;-72
2023/03/13 13:10:10;;;;;;;3.33;0.93;;;23.90;48.60;;;;;;7550746;19;20018;-73
2023/03/13 13:12:45;;;;;;;3.17;0.90;;;23.90;48.20;;;;;;7562766;19;20942;-73
2023/03/13 13:15:28;;;;;;;3.45;0.98;;;24.10;47.50;;;;;;7558606;19;20911;-73
2023/03/13 13:18:11;;;;;;;3.33;1.23;;;24.00;48.00;;;;;;7467536;19;20053;-74
2023/03/13 13:20:47;;;;;;;1.52;0.88;;;23.90;47.70;;;;;;7545708;19;20019;-72
2023/03/13 13:23:22;;;;;;;1.75;1.15;;;24.00;47.60;;;;;;7540437;19;20095;-71
2023/03/13 13:26:15;;;;;;;4.55;0.90;;;24.60;46.70;;;;;;7536764;19;20064;-70
2023/03/13 13:28:47;;;;;;;6.75;1.05;;;24.10;47.70;;;;;;7570641;19;20022;-73
2023/03/13 13:31:49;;;;;;;1.58;0.88;;;24.20;46.90;;;;;;7571833;19;20014;-73
2023/03/13 13:34:31;;;;;;;4.50;1.20;;;24.20;48.00;;;;;;7581360;19;20018;-72
2023/03/13 13:37:12;;;;;;;1.85;1.05;;;22.90;49.00;;;;;;7566071;19;20048;-72
2023/03/13 13:39:48;;;;;;;2.05;0.90;;;22.60;50.70;;;;;;7578851;19;20014;-72
2023/03/13 13:42:30;;;;;;;1.00;0.80;;;22.90;50.40;;;;;;7551128;19;20108;-72
2023/03/13 13:45:04;;;;;;;1.25;0.90;;;;;;;;;;7580896;19;20056;-73
2023/03/13 13:47:37;;;;;;;3.35;1.08;;;23.60;48.50;;;;;;7561281;19;20017;-72
2023/03/13 13:50:20;;;;;;;3.80;1.10;;;;;;;;;;7562193;19;20015;-72
2023/03/13 13:53:12;;;;;;;4.78;1.40;;;25.10;45.50;;;;;;7562486;19;20007;-72
2023/03/13 13:55:44;;;;;;;4.93;1.13;;;26.70;42.60;;;;;;7559230;19;20722;-72
2023/03/13 13:58:22;;;;;;;2.83;1.00;;;26.90;42.80;;;;;;7546942;19;20017;-70